sensor_id;sensor_type;location;lat;lon;timestamp;P1;durP1;ratioP1;P2;durP2;ratioP2
4466;SDS011;2246;42.664;23.278;2023-04-24T00:00:58;13.15;;;7.72;;
4466;SDS011;2246;42.664;23.278;2023-04-24T00:03:26;13.98;;;7.07;;
4466;SDS011;2246;42.664;23.278;2023-04-24T00:05:53;14.82;;;8.20;;
4466;SDS011;2246;42.664;23.278;2023-04-24T00:08:19;16.70;;;8.13;;
4466;SDS011;2246;42.664;23.278;2023-04-24T00:10:46;12.88;;;8.05;;
4466;SDS011;2246;42.664;23.278;2023-04-24T00:13:12;14.48;;;8.23;;
4466;SDS011;2246;42.664;23.278;2023-04-24T00:15:38;17.23;;;7.82;;
4466;SDS011;2246;42.664;23.278;2023-04-24T00:18:04;15.82;;;8.32;;
4466;SDS011;2246;42.664;23.278;2023-04-24T00:20:32;13.18;;;7.85;;
4466;SDS011;2246;42.664;23.278;2023-04-24T00:22:58;13.55;;;7.25;;
4466;SDS011;2246;42.664;23.278;2023-04-24T00:25:24;12.48;;;7.70;;
4466;SDS011;2246;42.664;23.278;2023-04-24T00:27:50;12.55;;;6.90;;
4466;SDS011;2246;42.664;23.278;2023-04-24T00:30:16;11.27;;;7.40;;
4466;SDS011;2246;42.664;23.278;2023-04-24T00:32:42;18.55;;;8.15;;
4466;SDS011;2246;42.664;23.278;2023-04-24T00:35:08;13.85;;;6.85;;
4466;SDS011;2246;42.664;23.278;2023-04-24T00:37:35;17.65;;;7.82;;
4466;SDS011;2246;42.664;23.278;2023-04-24T00:40:01;12.25;;;7.60;;
4466;SDS011;2246;42.664;23.278;2023-04-24T00:42:28;16.70;;;8.70;;
4466;SDS011;2246;42.664;23.278;2023-04-24T00:44:54;14.60;;;8.82;;
4466;SDS011;2246;42.664;23.278;2023-04-24T00:47:21;17.42;;;9.57;;
4466;SDS011;2246;42.664;23.278;2023-04-24T00:49:47;16.35;;;8.32;;
4466;SDS011;2246;42.664;23.278;2023-04-24T00:52:13;15.85;;;8.50;;
4466;SDS011;2246;42.664;23.278;2023-04-24T00:54:42;17.77;;;9.27;;
4466;SDS011;2246;42.664;23.278;2023-04-24T00:57:09;15.73;;;9.30;;
4466;SDS011;2246;42.664;23.278;2023-04-24T00:59:35;13.77;;;8.40;;
4466;SDS011;2246;42.664;23.278;2023-04-24T01:02:01;12.82;;;7.65;;
4466;SDS011;2246;42.664;23.278;2023-04-24T01:04:28;11.77;;;8.15;;
4466;SDS011;2246;42.664;23.278;2023-04-24T01:06:54;13.93;;;7.85;;
4466;SDS011;2246;42.664;23.278;2023-04-24T01:09:21;15.45;;;8.07;;
4466;SDS011;2246;42.664;23.278;2023-04-24T01:11:49;14.43;;;8.35;;
4466;SDS011;2246;42.664;23.278;2023-04-24T01:14:15;16.50;;;8.80;;
4466;SDS011;2246;42.664;23.278;2023-04-24T01:16:42;16.75;;;9.40;;
4466;SDS011;2246;42.664;23.278;2023-04-24T01:19:08;20.40;;;10.07;;
4466;SDS011;2246;42.664;23.278;2023-04-24T01:24:02;15.68;;;9.18;;
4466;SDS011;2246;42.664;23.278;2023-04-24T01:26:28;19.25;;;9.25;;
4466;SDS011;2246;42.664;23.278;2023-04-24T01:28:54;18.98;;;9.55;;
4466;SDS011;2246;42.664;23.278;2023-04-24T01:31:21;16.95;;;8.25;;
4466;SDS011;2246;42.664;23.278;2023-04-24T01:33:47;14.93;;;8.60;;
4466;SDS011;2246;42.664;23.278;2023-04-24T01:36:13;19.83;;;9.68;;
4466;SDS011;2246;42.664;23.278;2023-04-24T01:38:39;15.40;;;8.57;;
4466;SDS011;2246;42.664;23.278;2023-04-24T01:41:05;16.70;;;9.63;;
4466;SDS011;2246;42.664;23.278;2023-04-24T01:43:31;20.45;;;10.02;;
4466;SDS011;2246;42.664;23.278;2023-04-24T01:45:57;16.88;;;8.88;;
4466;SDS011;2246;42.664;23.278;2023-04-24T01:48:24;21.02;;;9.00;;
4466;SDS011;2246;42.664;23.278;2023-04-24T01:50:50;15.40;;;9.18;;
4466;SDS011;2246;42.664;23.278;2023-04-24T01:53:16;15.63;;;9.15;;
4466;SDS011;2246;42.664;23.278;2023-04-24T01:55:42;20.92;;;9.95;;
4466;SDS011;2246;42.664;23.278;2023-04-24T01:58:08;17.05;;;9.80;;
4466;SDS011;2246;42.664;23.278;2023-04-24T02:00:34;13.10;;;8.50;;
4466;SDS011;2246;42.664;23.278;2023-04-24T02:03:01;16.80;;;9.13;;
4466;SDS011;2246;42.664;23.278;2023-04-24T02:05:27;17.08;;;9.85;;
4466;SDS011;2246;42.664;23.278;2023-04-24T02:07:53;16.98;;;10.38;;
4466;SDS011;2246;42.664;23.278;2023-04-24T02:10:19;17.50;;;10.07;;
4466;SDS011;2246;42.664;23.278;2023-04-24T02:12:45;27.00;;;11.30;;
4466;SDS011;2246;42.664;23.278;2023-04-24T02:15:11;17.98;;;10.20;;
4466;SDS011;2246;42.664;23.278;2023-04-24T02:17:38;19.42;;;10.40;;
4466;SDS011;2246;42.664;23.278;2023-04-24T02:20:05;16.00;;;9.30;;
4466;SDS011;2246;42.664;23.278;2023-04-24T02:22:31;16.88;;;9.40;;
4466;SDS011;2246;42.664;23.278;2023-04-24T02:24:57;15.02;;;10.02;;
4466;SDS011;2246;42.664;23.278;2023-04-24T02:27:23;15.95;;;9.80;;
4466;SDS011;2246;42.664;23.278;2023-04-24T02:29:49;16.90;;;9.50;;
4466;SDS011;2246;42.664;23.278;2023-04-24T02:32:15;15.05;;;9.57;;
4466;SDS011;2246;42.664;23.278;2023-04-24T02:34:41;13.18;;;8.63;;
4466;SDS011;2246;42.664;23.278;2023-04-24T02:37:07;12.35;;;8.30;;
4466;SDS011;2246;42.664;23.278;2023-04-24T02:39:34;18.15;;;10.43;;
4466;SDS011;2246;42.664;23.278;2023-04-24T02:41:59;25.52;;;13.52;;
4466;SDS011;2246;42.664;23.278;2023-04-24T02:44:26;20.80;;;10.32;;
4466;SDS011;2246;42.664;23.278;2023-04-24T02:46:52;19.08;;;10.10;;
4466;SDS011;2246;42.664;23.278;2023-04-24T02:49:18;23.00;;;9.40;;
4466;SDS011;2246;42.664;23.278;2023-04-24T02:51:44;16.88;;;9.38;;
4466;SDS011;2246;42.664;23.278;2023-04-24T02:54:10;16.45;;;8.63;;
4466;SDS011;2246;42.664;23.278;2023-04-24T02:56:37;18.55;;;10.10;;
4466;SDS011;2246;42.664;23.278;2023-04-24T02:59:03;17.33;;;10.20;;
4466;SDS011;2246;42.664;23.278;2023-04-24T03:01:29;21.15;;;11.10;;
4466;SDS011;2246;42.664;23.278;2023-04-24T03:03:55;18.50;;;10.30;;
4466;SDS011;2246;42.664;23.278;2023-04-24T03:06:21;17.42;;;10.05;;
4466;SDS011;2246;42.664;23.278;2023-04-24T03:08:47;22.50;;;12.32;;
4466;SDS011;2246;42.664;23.278;2023-04-24T03:11:14;19.90;;;11.30;;
4466;SDS011;2246;42.664;23.278;2023-04-24T03:13:40;17.38;;;9.73;;
4466;SDS011;2246;42.664;23.278;2023-04-24T03:16:06;17.25;;;10.70;;
4466;SDS011;2246;42.664;23.278;2023-04-24T03:18:32;18.40;;;10.55;;
4466;SDS011;2246;42.664;23.278;2023-04-24T03:20:58;20.90;;;10.05;;
4466;SDS011;2246;42.664;23.278;2023-04-24T03:23:24;18.67;;;9.73;;
4466;SDS011;2246;42.664;23.278;2023-04-24T03:25:50;17.67;;;10.43;;
4466;SDS011;2246;42.664;23.278;2023-04-24T03:28:16;14.95;;;10.05;;
4466;SDS011;2246;42.664;23.278;2023-04-24T03:30:42;17.30;;;10.02;;
4466;SDS011;2246;42.664;23.278;2023-04-24T03:33:08;17.88;;;9.85;;
4466;SDS011;2246;42.664;23.278;2023-04-24T03:35:34;19.80;;;9.75;;
4466;SDS011;2246;42.664;23.278;2023-04-24T03:38:01;17.30;;;9.73;;
4466;SDS011;2246;42.664;23.278;2023-04-24T03:40:29;21.15;;;10.20;;
4466;SDS011;2246;42.664;23.278;2023-04-24T03:42:55;18.52;;;9.48;;
4466;SDS011;2246;42.664;23.278;2023-04-24T03:45:21;14.18;;;9.68;;
4466;SDS011;2246;42.664;23.278;2023-04-24T03:47:47;15.38;;;8.75;;
4466;SDS011;2246;42.664;23.278;2023-04-24T03:50:13;21.10;;;8.60;;
4466;SDS011;2246;42.664;23.278;2023-04-24T03:52:39;12.27;;;8.93;;
4466;SDS011;2246;42.664;23.278;2023-04-24T03:55:06;20.75;;;11.82;;
4466;SDS011;2246;42.664;23.278;2023-04-24T03:57:32;21.13;;;11.98;;
4466;SDS011;2246;42.664;23.278;2023-04-24T03:59:58;22.98;;;13.13;;
4466;SDS011;2246;42.664;23.278;2023-04-24T04:02:24;22.08;;;12.13;;
4466;SDS011;2246;42.664;23.278;2023-04-24T04:04:50;21.52;;;10.80;;
4466;SDS011;2246;42.664;23.278;2023-04-24T04:07:16;22.27;;;11.55;;
4466;SDS011;2246;42.664;23.278;2023-04-24T04:09:42;18.80;;;9.68;;
4466;SDS011;2246;42.664;23.278;2023-04-24T04:12:09;14.35;;;9.15;;
4466;SDS011;2246;42.664;23.278;2023-04-24T04:14:35;14.80;;;8.82;;
4466;SDS011;2246;42.664;23.278;2023-04-24T04:17:01;16.42;;;9.10;;
4466;SDS011;2246;42.664;23.278;2023-04-24T04:19:27;15.65;;;8.40;;
4466;SDS011;2246;42.664;23.278;2023-04-24T04:21:53;16.98;;;9.45;;
4466;SDS011;2246;42.664;23.278;2023-04-24T04:24:21;18.48;;;9.10;;
4466;SDS011;2246;42.664;23.278;2023-04-24T04:26:47;25.20;;;9.23;;
4466;SDS011;2246;42.664;23.278;2023-04-24T04:29:16;13.82;;;7.75;;
4466;SDS011;2246;42.664;23.278;2023-04-24T04:31:43;14.18;;;8.60;;
4466;SDS011;2246;42.664;23.278;2023-04-24T04:34:09;12.80;;;7.50;;
4466;SDS011;2246;42.664;23.278;2023-04-24T04:36:36;12.63;;;7.33;;
4466;SDS011;2246;42.664;23.278;2023-04-24T04:39:05;17.85;;;7.55;;
4466;SDS011;2246;42.664;23.278;2023-04-24T04:41:31;16.50;;;8.60;;
4466;SDS011;2246;42.664;23.278;2023-04-24T04:44:00;16.90;;;7.40;;
4466;SDS011;2246;42.664;23.278;2023-04-24T04:46:26;13.48;;;7.57;;
4466;SDS011;2246;42.664;23.278;2023-04-24T04:48:53;15.13;;;8.68;;
4466;SDS011;2246;42.664;23.278;2023-04-24T04:51:19;14.73;;;8.60;;
4466;SDS011;2246;42.664;23.278;2023-04-24T04:53:45;18.55;;;8.32;;
4466;SDS011;2246;42.664;23.278;2023-04-24T04:56:11;17.73;;;7.95;;
4466;SDS011;2246;42.664;23.278;2023-04-24T04:58:38;18.23;;;8.35;;
4466;SDS011;2246;42.664;23.278;2023-04-24T05:01:04;12.77;;;7.72;;
4466;SDS011;2246;42.664;23.278;2023-04-24T05:03:30;16.08;;;8.10;;
4466;SDS011;2246;42.664;23.278;2023-04-24T05:05:57;19.33;;;8.70;;
4466;SDS011;2246;42.664;23.278;2023-04-24T05:08:23;18.53;;;8.03;;
4466;SDS011;2246;42.664;23.278;2023-04-24T05:10:49;15.55;;;8.20;;
4466;SDS011;2246;42.664;23.278;2023-04-24T05:13:15;18.02;;;8.90;;
4466;SDS011;2246;42.664;23.278;2023-04-24T05:15:41;15.77;;;8.15;;
4466;SDS011;2246;42.664;23.278;2023-04-24T05:18:07;18.23;;;8.20;;
4466;SDS011;2246;42.664;23.278;2023-04-24T05:20:33;14.90;;;8.68;;
4466;SDS011;2246;42.664;23.278;2023-04-24T05:23:00;15.48;;;7.85;;
4466;SDS011;2246;42.664;23.278;2023-04-24T05:25:26;26.05;;;8.60;;
4466;SDS011;2246;42.664;23.278;2023-04-24T05:27:52;14.82;;;6.55;;
4466;SDS011;2246;42.664;23.278;2023-04-24T05:30:19;8.15;;;4.80;;
4466;SDS011;2246;42.664;23.278;2023-04-24T05:32:45;11.35;;;4.80;;
4466;SDS011;2246;42.664;23.278;2023-04-24T05:35:11;10.82;;;4.57;;
4466;SDS011;2246;42.664;23.278;2023-04-24T05:37:37;9.82;;;5.70;;
4466;SDS011;2246;42.664;23.278;2023-04-24T05:40:03;12.07;;;6.82;;
4466;SDS011;2246;42.664;23.278;2023-04-24T05:42:30;20.35;;;7.45;;
4466;SDS011;2246;42.664;23.278;2023-04-24T05:44:57;13.43;;;6.20;;
4466;SDS011;2246;42.664;23.278;2023-04-24T05:47:23;16.00;;;5.90;;
4466;SDS011;2246;42.664;23.278;2023-04-24T05:49:49;12.52;;;5.80;;
4466;SDS011;2246;42.664;23.278;2023-04-24T05:52:15;13.90;;;5.25;;
4466;SDS011;2246;42.664;23.278;2023-04-24T05:54:41;14.23;;;5.28;;
4466;SDS011;2246;42.664;23.278;2023-04-24T05:57:07;7.40;;;5.00;;
4466;SDS011;2246;42.664;23.278;2023-04-24T05:59:34;11.65;;;5.57;;
4466;SDS011;2246;42.664;23.278;2023-04-24T06:02:00;12.38;;;5.38;;
4466;SDS011;2246;42.664;23.278;2023-04-24T06:04:26;11.75;;;6.15;;
4466;SDS011;2246;42.664;23.278;2023-04-24T06:06:52;14.27;;;5.53;;
4466;SDS011;2246;42.664;23.278;2023-04-24T06:09:21;11.68;;;5.95;;
4466;SDS011;2246;42.664;23.278;2023-04-24T06:11:47;13.98;;;5.63;;
4466;SDS011;2246;42.664;23.278;2023-04-24T06:14:13;13.48;;;6.32;;
4466;SDS011;2246;42.664;23.278;2023-04-24T06:16:42;13.07;;;5.82;;
4466;SDS011;2246;42.664;23.278;2023-04-24T06:19:08;13.43;;;6.38;;
4466;SDS011;2246;42.664;23.278;2023-04-24T06:21:34;15.93;;;6.45;;
4466;SDS011;2246;42.664;23.278;2023-04-24T06:24:00;12.60;;;7.18;;
4466;SDS011;2246;42.664;23.278;2023-04-24T06:26:27;12.90;;;6.57;;
4466;SDS011;2246;42.664;23.278;2023-04-24T06:28:53;20.15;;;6.50;;
4466;SDS011;2246;42.664;23.278;2023-04-24T06:31:20;14.35;;;5.90;;
4466;SDS011;2246;42.664;23.278;2023-04-24T06:33:46;12.60;;;6.07;;
4466;SDS011;2246;42.664;23.278;2023-04-24T06:36:12;14.75;;;6.88;;
4466;SDS011;2246;42.664;23.278;2023-04-24T06:38:38;15.45;;;7.13;;
4466;SDS011;2246;42.664;23.278;2023-04-24T06:41:05;16.80;;;6.53;;
4466;SDS011;2246;42.664;23.278;2023-04-24T06:43:31;14.90;;;6.75;;
4466;SDS011;2246;42.664;23.278;2023-04-24T06:45:57;14.32;;;7.20;;
4466;SDS011;2246;42.664;23.278;2023-04-24T06:48:24;10.32;;;6.45;;
4466;SDS011;2246;42.664;23.278;2023-04-24T06:50:50;13.07;;;7.03;;
4466;SDS011;2246;42.664;23.278;2023-04-24T06:53:16;14.35;;;6.78;;
4466;SDS011;2246;42.664;23.278;2023-04-24T06:55:42;23.45;;;7.55;;
4466;SDS011;2246;42.664;23.278;2023-04-24T06:58:11;13.43;;;7.22;;
4466;SDS011;2246;42.664;23.278;2023-04-24T07:00:37;20.60;;;8.65;;
4466;SDS011;2246;42.664;23.278;2023-04-24T07:03:03;16.80;;;7.13;;
4466;SDS011;2246;42.664;23.278;2023-04-24T07:05:32;14.05;;;6.70;;
4466;SDS011;2246;42.664;23.278;2023-04-24T07:08:03;16.15;;;6.82;;
4466;SDS011;2246;42.664;23.278;2023-04-24T07:10:29;10.63;;;6.20;;
4466;SDS011;2246;42.664;23.278;2023-04-24T07:12:55;15.40;;;6.63;;
4466;SDS011;2246;42.664;23.278;2023-04-24T07:15:22;11.65;;;7.07;;
4466;SDS011;2246;42.664;23.278;2023-04-24T07:20:24;17.58;;;6.72;;
4466;SDS011;2246;42.664;23.278;2023-04-24T07:22:51;13.23;;;6.13;;
4466;SDS011;2246;42.664;23.278;2023-04-24T07:25:18;12.32;;;6.00;;
4466;SDS011;2246;42.664;23.278;2023-04-24T07:27:45;13.00;;;5.97;;
4466;SDS011;2246;42.664;23.278;2023-04-24T07:30:11;10.85;;;7.25;;
4466;SDS011;2246;42.664;23.278;2023-04-24T07:32:37;13.85;;;7.38;;
4466;SDS011;2246;42.664;23.278;2023-04-24T07:35:03;12.57;;;6.75;;
4466;SDS011;2246;42.664;23.278;2023-04-24T07:37:29;10.10;;;5.50;;
4466;SDS011;2246;42.664;23.278;2023-04-24T07:39:55;12.60;;;5.80;;
4466;SDS011;2246;42.664;23.278;2023-04-24T07:42:21;13.82;;;5.95;;
4466;SDS011;2246;42.664;23.278;2023-04-24T07:44:47;16.52;;;6.82;;
4466;SDS011;2246;42.664;23.278;2023-04-24T07:47:14;15.85;;;6.00;;
4466;SDS011;2246;42.664;23.278;2023-04-24T07:49:41;11.30;;;6.18;;
4466;SDS011;2246;42.664;23.278;2023-04-24T07:52:07;11.73;;;5.63;;
4466;SDS011;2246;42.664;23.278;2023-04-24T07:54:33;10.02;;;5.55;;
4466;SDS011;2246;42.664;23.278;2023-04-24T07:56:59;14.70;;;5.85;;
4466;SDS011;2246;42.664;23.278;2023-04-24T07:59:25;9.13;;;5.43;;
4466;SDS011;2246;42.664;23.278;2023-04-24T08:01:51;9.20;;;5.68;;
4466;SDS011;2246;42.664;23.278;2023-04-24T08:04:19;11.80;;;6.38;;
4466;SDS011;2246;42.664;23.278;2023-04-24T08:06:46;10.77;;;5.72;;
4466;SDS011;2246;42.664;23.278;2023-04-24T08:09:12;10.10;;;5.82;;
4466;SDS011;2246;42.664;23.278;2023-04-24T08:11:38;10.60;;;5.32;;
4466;SDS011;2246;42.664;23.278;2023-04-24T08:14:05;9.18;;;5.72;;
4466;SDS011;2246;42.664;23.278;2023-04-24T08:16:32;13.38;;;5.88;;
4466;SDS011;2246;42.664;23.278;2023-04-24T08:18:58;10.05;;;5.22;;
4466;SDS011;2246;42.664;23.278;2023-04-24T08:21:24;8.95;;;5.15;;
4466;SDS011;2246;42.664;23.278;2023-04-24T08:23:51;12.63;;;5.22;;
4466;SDS011;2246;42.664;23.278;2023-04-24T08:26:17;12.25;;;6.15;;
4466;SDS011;2246;42.664;23.278;2023-04-24T08:28:43;12.30;;;5.50;;
4466;SDS011;2246;42.664;23.278;2023-04-24T08:31:09;13.10;;;6.30;;
4466;SDS011;2246;42.664;23.278;2023-04-24T08:33:35;13.60;;;5.57;;
4466;SDS011;2246;42.664;23.278;2023-04-24T08:36:02;7.93;;;5.15;;
4466;SDS011;2246;42.664;23.278;2023-04-24T08:38:28;13.98;;;6.32;;
4466;SDS011;2246;42.664;23.278;2023-04-24T08:40:54;17.80;;;5.80;;
4466;SDS011;2246;42.664;23.278;2023-04-24T08:43:22;8.90;;;5.55;;
4466;SDS011;2246;42.664;23.278;2023-04-24T08:45:48;7.90;;;5.15;;
4466;SDS011;2246;42.664;23.278;2023-04-24T08:48:14;13.68;;;6.93;;
4466;SDS011;2246;42.664;23.278;2023-04-24T08:50:41;11.60;;;5.90;;
4466;SDS011;2246;42.664;23.278;2023-04-24T08:53:08;13.52;;;5.97;;
4466;SDS011;2246;42.664;23.278;2023-04-24T08:55:34;13.05;;;6.07;;
4466;SDS011;2246;42.664;23.278;2023-04-24T08:58:01;11.88;;;6.28;;
4466;SDS011;2246;42.664;23.278;2023-04-24T09:00:28;11.90;;;6.30;;
4466;SDS011;2246;42.664;23.278;2023-04-24T09:02:54;13.07;;;6.25;;
4466;SDS011;2246;42.664;23.278;2023-04-24T09:05:21;10.65;;;5.65;;
4466;SDS011;2246;42.664;23.278;2023-04-24T09:07:57;9.25;;;5.75;;
4466;SDS011;2246;42.664;23.278;2023-04-24T09:10:25;11.43;;;5.72;;
4466;SDS011;2246;42.664;23.278;2023-04-24T09:12:52;12.73;;;6.27;;
4466;SDS011;2246;42.664;23.278;2023-04-24T09:15:19;11.80;;;5.82;;
4466;SDS011;2246;42.664;23.278;2023-04-24T09:17:45;14.10;;;6.17;;
4466;SDS011;2246;42.664;23.278;2023-04-24T09:20:11;14.57;;;5.68;;
4466;SDS011;2246;42.664;23.278;2023-04-24T09:22:37;8.30;;;5.45;;
4466;SDS011;2246;42.664;23.278;2023-04-24T09:25:04;11.55;;;5.22;;
4466;SDS011;2246;42.664;23.278;2023-04-24T09:27:32;9.35;;;5.07;;
4466;SDS011;2246;42.664;23.278;2023-04-24T09:29:58;14.05;;;6.88;;
4466;SDS011;2246;42.664;23.278;2023-04-24T09:32:25;10.30;;;5.75;;
4466;SDS011;2246;42.664;23.278;2023-04-24T09:37:36;9.90;;;5.00;;
4466;SDS011;2246;42.664;23.278;2023-04-24T09:42:38;7.90;;;4.80;;
4466;SDS011;2246;42.664;23.278;2023-04-24T09:45:08;16.02;;;5.50;;
4466;SDS011;2246;42.664;23.278;2023-04-24T09:47:36;10.13;;;4.90;;
4466;SDS011;2246;42.664;23.278;2023-04-24T09:50:09;8.00;;;4.97;;
4466;SDS011;2246;42.664;23.278;2023-04-24T09:52:35;8.95;;;4.68;;
4466;SDS011;2246;42.664;23.278;2023-04-24T09:55:01;10.18;;;4.57;;
4466;SDS011;2246;42.664;23.278;2023-04-24T09:57:27;9.90;;;4.70;;
4466;SDS011;2246;42.664;23.278;2023-04-24T09:59:53;8.20;;;4.82;;
4466;SDS011;2246;42.664;23.278;2023-04-24T10:02:20;14.55;;;4.70;;
4466;SDS011;2246;42.664;23.278;2023-04-24T10:04:56;9.75;;;4.70;;
4466;SDS011;2246;42.664;23.278;2023-04-24T10:07:25;13.93;;;5.05;;
4466;SDS011;2246;42.664;23.278;2023-04-24T10:09:51;7.90;;;4.18;;
4466;SDS011;2246;42.664;23.278;2023-04-24T10:12:17;7.97;;;4.72;;
4466;SDS011;2246;42.664;23.278;2023-04-24T10:14:44;12.13;;;4.18;;
4466;SDS011;2246;42.664;23.278;2023-04-24T10:17:10;7.95;;;4.22;;
4466;SDS011;2246;42.664;23.278;2023-04-24T10:19:37;6.88;;;3.95;;
4466;SDS011;2246;42.664;23.278;2023-04-24T10:22:03;5.75;;;3.90;;
4466;SDS011;2246;42.664;23.278;2023-04-24T10:24:29;7.10;;;3.90;;
4466;SDS011;2246;42.664;23.278;2023-04-24T10:26:55;7.75;;;3.80;;
4466;SDS011;2246;42.664;23.278;2023-04-24T10:29:23;10.38;;;4.00;;
4466;SDS011;2246;42.664;23.278;2023-04-24T10:31:49;13.02;;;4.00;;
4466;SDS011;2246;42.664;23.278;2023-04-24T10:34:16;6.18;;;3.65;;
4466;SDS011;2246;42.664;23.278;2023-04-24T10:36:43;9.57;;;4.00;;
4466;SDS011;2246;42.664;23.278;2023-04-24T10:39:12;12.45;;;3.72;;
4466;SDS011;2246;42.664;23.278;2023-04-24T10:41:40;5.97;;;2.47;;
4466;SDS011;2246;42.664;23.278;2023-04-24T10:44:12;8.15;;;3.25;;
4466;SDS011;2246;42.664;23.278;2023-04-24T10:46:39;9.30;;;3.75;;
4466;SDS011;2246;42.664;23.278;2023-04-24T10:49:06;7.78;;;3.08;;
4466;SDS011;2246;42.664;23.278;2023-04-24T10:54:26;11.40;;;3.35;;
4466;SDS011;2246;42.664;23.278;2023-04-24T10:56:53;5.78;;;3.33;;
4466;SDS011;2246;42.664;23.278;2023-04-24T10:59:28;5.85;;;3.53;;
4466;SDS011;2246;42.664;23.278;2023-04-24T11:02:02;5.28;;;3.30;;
4466;SDS011;2246;42.664;23.278;2023-04-24T11:04:29;8.55;;;3.55;;
4466;SDS011;2246;42.664;23.278;2023-04-24T11:09:22;5.50;;;3.22;;
4466;SDS011;2246;42.664;23.278;2023-04-24T11:11:48;7.38;;;3.22;;
4466;SDS011;2246;42.664;23.278;2023-04-24T11:14:15;12.95;;;3.15;;
4466;SDS011;2246;42.664;23.278;2023-04-24T11:19:08;6.30;;;3.30;;
4466;SDS011;2246;42.664;23.278;2023-04-24T11:26:48;4.20;;;2.83;;
4466;SDS011;2246;42.664;23.278;2023-04-24T11:29:14;8.73;;;3.75;;
4466;SDS011;2246;42.664;23.278;2023-04-24T11:31:40;5.95;;;3.00;;
4466;SDS011;2246;42.664;23.278;2023-04-24T11:34:11;5.45;;;2.95;;
4466;SDS011;2246;42.664;23.278;2023-04-24T11:36:38;5.32;;;3.33;;
4466;SDS011;2246;42.664;23.278;2023-04-24T11:39:04;4.55;;;3.67;;
4466;SDS011;2246;42.664;23.278;2023-04-24T11:41:31;7.25;;;3.90;;
4466;SDS011;2246;42.664;23.278;2023-04-24T11:43:57;6.03;;;3.58;;
4466;SDS011;2246;42.664;23.278;2023-04-24T11:46:27;4.75;;;3.70;;
4466;SDS011;2246;42.664;23.278;2023-04-24T11:48:53;5.00;;;3.90;;
4466;SDS011;2246;42.664;23.278;2023-04-24T11:51:19;9.32;;;3.65;;
4466;SDS011;2246;42.664;23.278;2023-04-24T11:53:45;8.48;;;4.22;;
4466;SDS011;2246;42.664;23.278;2023-04-24T11:56:12;7.80;;;4.65;;
4466;SDS011;2246;42.664;23.278;2023-04-24T11:58:38;4.95;;;3.47;;
4466;SDS011;2246;42.664;23.278;2023-04-24T12:01:04;4.95;;;3.47;;
4466;SDS011;2246;42.664;23.278;2023-04-24T12:03:31;5.60;;;3.40;;
4466;SDS011;2246;42.664;23.278;2023-04-24T12:06:06;7.72;;;3.83;;
4466;SDS011;2246;42.664;23.278;2023-04-24T12:08:33;5.50;;;3.67;;
4466;SDS011;2246;42.664;23.278;2023-04-24T12:11:02;6.45;;;4.00;;
4466;SDS011;2246;42.664;23.278;2023-04-24T12:13:29;4.90;;;3.63;;
4466;SDS011;2246;42.664;23.278;2023-04-24T12:15:56;6.43;;;3.38;;
4466;SDS011;2246;42.664;23.278;2023-04-24T12:18:22;4.72;;;3.45;;
4466;SDS011;2246;42.664;23.278;2023-04-24T12:20:49;6.00;;;4.10;;
4466;SDS011;2246;42.664;23.278;2023-04-24T12:23:15;4.75;;;3.67;;
4466;SDS011;2246;42.664;23.278;2023-04-24T12:25:42;4.43;;;2.80;;
4466;SDS011;2246;42.664;23.278;2023-04-24T12:28:09;4.88;;;3.35;;
4466;SDS011;2246;42.664;23.278;2023-04-24T12:33:09;7.60;;;3.25;;
4466;SDS011;2246;42.664;23.278;2023-04-24T12:35:35;6.05;;;3.60;;
4466;SDS011;2246;42.664;23.278;2023-04-24T12:38:11;5.45;;;3.60;;
4466;SDS011;2246;42.664;23.278;2023-04-24T12:40:39;5.43;;;3.50;;
4466;SDS011;2246;42.664;23.278;2023-04-24T12:45:32;4.72;;;3.28;;
4466;SDS011;2246;42.664;23.278;2023-04-24T12:47:58;7.05;;;3.63;;
4466;SDS011;2246;42.664;23.278;2023-04-24T12:50:24;11.50;;;4.07;;
4466;SDS011;2246;42.664;23.278;2023-04-24T12:52:50;9.95;;;4.07;;
4466;SDS011;2246;42.664;23.278;2023-04-24T12:55:16;6.35;;;3.50;;
4466;SDS011;2246;42.664;23.278;2023-04-24T12:57:42;4.50;;;3.10;;
4466;SDS011;2246;42.664;23.278;2023-04-24T13:00:09;6.45;;;3.83;;
4466;SDS011;2246;42.664;23.278;2023-04-24T13:02:35;6.60;;;3.83;;
4466;SDS011;2246;42.664;23.278;2023-04-24T13:05:01;5.50;;;3.45;;
4466;SDS011;2246;42.664;23.278;2023-04-24T13:07:27;5.47;;;3.00;;
4466;SDS011;2246;42.664;23.278;2023-04-24T13:09:54;5.28;;;2.92;;
4466;SDS011;2246;42.664;23.278;2023-04-24T13:12:21;6.75;;;3.50;;
4466;SDS011;2246;42.664;23.278;2023-04-24T13:14:49;4.88;;;3.25;;
4466;SDS011;2246;42.664;23.278;2023-04-24T13:17:15;8.75;;;3.30;;
4466;SDS011;2246;42.664;23.278;2023-04-24T13:19:42;5.55;;;3.40;;
4466;SDS011;2246;42.664;23.278;2023-04-24T13:22:11;7.50;;;3.03;;
4466;SDS011;2246;42.664;23.278;2023-04-24T13:24:38;8.43;;;4.40;;
4466;SDS011;2246;42.664;23.278;2023-04-24T13:27:05;5.63;;;3.55;;
4466;SDS011;2246;42.664;23.278;2023-04-24T13:29:32;4.47;;;3.10;;
4466;SDS011;2246;42.664;23.278;2023-04-24T13:31:58;4.65;;;3.20;;
4466;SDS011;2246;42.664;23.278;2023-04-24T13:34:24;5.93;;;3.15;;
4466;SDS011;2246;42.664;23.278;2023-04-24T13:36:51;4.00;;;2.65;;
4466;SDS011;2246;42.664;23.278;2023-04-24T13:39:18;10.55;;;3.20;;
4466;SDS011;2246;42.664;23.278;2023-04-24T13:41:44;7.57;;;3.55;;
4466;SDS011;2246;42.664;23.278;2023-04-24T13:44:12;4.93;;;3.50;;
4466;SDS011;2246;42.664;23.278;2023-04-24T13:46:38;7.18;;;3.03;;
4466;SDS011;2246;42.664;23.278;2023-04-24T13:49:04;9.07;;;2.85;;
4466;SDS011;2246;42.664;23.278;2023-04-24T13:51:30;4.65;;;2.90;;
4466;SDS011;2246;42.664;23.278;2023-04-24T13:53:56;6.90;;;3.50;;
4466;SDS011;2246;42.664;23.278;2023-04-24T13:56:22;4.32;;;3.17;;
4466;SDS011;2246;42.664;23.278;2023-04-24T13:58:48;8.20;;;3.05;;
4466;SDS011;2246;42.664;23.278;2023-04-24T14:01:14;4.03;;;3.10;;
4466;SDS011;2246;42.664;23.278;2023-04-24T14:03:41;10.18;;;2.90;;
4466;SDS011;2246;42.664;23.278;2023-04-24T14:06:08;4.50;;;3.03;;
4466;SDS011;2246;42.664;23.278;2023-04-24T14:08:34;4.30;;;3.10;;
4466;SDS011;2246;42.664;23.278;2023-04-24T14:11:00;6.85;;;2.97;;
4466;SDS011;2246;42.664;23.278;2023-04-24T14:13:27;8.00;;;3.47;;
4466;SDS011;2246;42.664;23.278;2023-04-24T14:15:53;10.48;;;3.22;;
4466;SDS011;2246;42.664;23.278;2023-04-24T14:18:19;6.20;;;3.00;;
4466;SDS011;2246;42.664;23.278;2023-04-24T14:20:46;7.78;;;3.20;;
4466;SDS011;2246;42.664;23.278;2023-04-24T14:23:12;6.95;;;2.92;;
4466;SDS011;2246;42.664;23.278;2023-04-24T14:25:38;4.95;;;2.75;;
4466;SDS011;2246;42.664;23.278;2023-04-24T14:28:05;5.38;;;2.60;;
4466;SDS011;2246;42.664;23.278;2023-04-24T14:30:31;6.93;;;2.80;;
4466;SDS011;2246;42.664;23.278;2023-04-24T14:32:58;6.43;;;2.90;;
4466;SDS011;2246;42.664;23.278;2023-04-24T14:35:24;5.13;;;3.30;;
4466;SDS011;2246;42.664;23.278;2023-04-24T14:37:50;5.50;;;2.65;;
4466;SDS011;2246;42.664;23.278;2023-04-24T14:40:16;9.15;;;3.80;;
4466;SDS011;2246;42.664;23.278;2023-04-24T14:42:42;9.07;;;3.67;;
4466;SDS011;2246;42.664;23.278;2023-04-24T14:45:09;8.48;;;4.32;;
4466;SDS011;2246;42.664;23.278;2023-04-24T14:47:36;8.05;;;3.50;;
4466;SDS011;2246;42.664;23.278;2023-04-24T14:50:02;3.92;;;2.72;;
4466;SDS011;2246;42.664;23.278;2023-04-24T14:52:28;6.63;;;3.35;;
4466;SDS011;2246;42.664;23.278;2023-04-24T14:54:54;8.82;;;2.95;;
4466;SDS011;2246;42.664;23.278;2023-04-24T14:57:21;7.32;;;3.47;;
4466;SDS011;2246;42.664;23.278;2023-04-24T14:59:47;7.47;;;3.28;;
4466;SDS011;2246;42.664;23.278;2023-04-24T15:02:13;7.65;;;3.53;;
4466;SDS011;2246;42.664;23.278;2023-04-24T15:04:39;7.07;;;3.17;;
4466;SDS011;2246;42.664;23.278;2023-04-24T15:07:06;4.22;;;3.08;;
4466;SDS011;2246;42.664;23.278;2023-04-24T15:09:32;10.80;;;3.67;;
4466;SDS011;2246;42.664;23.278;2023-04-24T15:11:59;6.00;;;3.53;;
4466;SDS011;2246;42.664;23.278;2023-04-24T15:14:26;4.20;;;3.40;;